Time;durP1;ratioP1;P1;durP2;ratioP2;P2;SDS_P1;SDS_P2;PMS_P1;PMS_P2;Temp;Humidity;BMP_temperature;BMP_pressure;BME280_temperature;BME280_humidity;BME280_pressure;Samples;Min_cycle;Max_cycle;Signal;HPM_P1;HPM_P2
2021/05/30 00:00:25;;;;;;;3.25;2.10;;;14.50;82.80;;;;;;5060105;28;20095;-78
2021/05/30 00:02:50;;;;;;;6.00;2.50;;;14.50;83.40;;;;;;5070476;28;20024;-78
2021/05/30 00:05:16;;;;;;;4.95;2.83;;;;;;;;;;5051252;28;20135;-77
2021/05/30 00:07:42;;;;;;;3.95;2.33;;;14.40;84.20;;;;;;5058761;28;20502;-75
2021/05/30 00:10:09;;;;;;;3.72;2.30;;;14.30;84.80;;;;;;5043619;28;20074;-77
2021/05/30 00:12:35;;;;;;;5.43;2.90;;;14.30;84.60;;;;;;5066098;28;20230;-76
2021/05/30 00:15:01;;;;;;;2.53;1.90;;;14.30;85.10;;;;;;5053303;28;20043;-76
2021/05/30 00:17:27;;;;;;;4.05;1.77;;;14.30;83.20;;;;;;5048253;28;20475;-77
2021/05/30 00:19:53;;;;;;;3.10;2.00;;;14.30;82.90;;;;;;5064638;28;20043;-76
2021/05/30 00:22:18;;;;;;;3.47;2.08;;;14.30;83.40;;;;;;5062718;28;20344;-78
2021/05/30 00:24:44;;;;;;;3.63;2.20;;;;;;;;;;5064008;28;20051;-77
2021/05/30 00:27:10;;;;;;;3.95;2.40;;;14.30;82.80;;;;;;5065728;28;20033;-78
2021/05/30 00:29:36;;;;;;;3.70;2.45;;;;;;;;;;5057116;28;20565;-78
2021/05/30 00:32:02;;;;;;;3.00;2.10;;;14.20;82.80;;;;;;5069708;28;20039;-78
2021/05/30 00:34:28;;;;;;;4.97;3.03;;;14.10;82.70;;;;;;5065073;28;20028;-76
2021/05/30 00:36:54;;;;;;;3.78;2.72;;;;;;;;;;5062609;28;20371;-78
2021/05/30 00:39:20;;;;;;;4.28;2.47;;;;;;;;;;5045360;28;20036;-76
2021/05/30 00:41:45;;;;;;;5.20;2.85;;;14.10;85.70;;;;;;5045982;28;20036;-77
2021/05/30 00:44:25;;;;;;;3.88;2.50;;;14.00;86.30;;;;;;5059578;28;20545;-77
2021/05/30 00:46:52;;;;;;;4.10;2.17;;;14.00;86.70;;;;;;5063921;28;20114;-77
2021/05/30 00:49:19;;;;;;;3.05;2.15;;;;;;;;;;5059623;28;20519;-77
2021/05/30 00:51:45;;;;;;;4.85;2.72;;;13.90;86.70;;;;;;5051445;28;20029;-78
2021/05/30 00:54:13;;;;;;;5.13;2.65;;;13.80;88.60;;;;;;5058959;28;20056;-76
2021/05/30 00:56:40;;;;;;;4.05;2.65;;;15.30;90.00;;;;;;5051552;28;20483;-77
2021/05/30 00:59:06;;;;;;;6.22;2.70;;;13.80;88.60;;;;;;5060523;28;20376;-77
2021/05/30 01:01:32;;;;;;;5.80;2.97;;;13.80;87.70;;;;;;5052682;28;20470;-78
2021/05/30 01:03:58;;;;;;;5.05;2.85;;;;;;;;;;5041464;28;20047;-77
2021/05/30 01:06:25;;;;;;;7.65;2.50;;;13.70;87.00;;;;;;5048180;28;20474;-78
2021/05/30 01:08:51;;;;;;;5.72;2.70;;;13.70;88.30;;;;;;5060463;28;20045;-77
2021/05/30 01:11:19;;;;;;;6.65;2.00;;;13.70;87.70;;;;;;5039051;28;20714;-76
2021/05/30 01:13:45;;;;;;;3.75;2.40;;;13.90;85.80;;;;;;5044799;28;20025;-77
2021/05/30 01:16:13;;;;;;;3.08;2.00;;;13.80;85.80;;;;;;5041442;28;20104;-77
2021/05/30 01:18:40;;;;;;;4.20;2.20;;;13.80;84.70;;;;;;5058477;28;20031;-77
2021/05/30 01:21:06;;;;;;;2.90;1.95;;;13.90;84.90;;;;;;5041282;28;20605;-75
2021/05/30 01:23:32;;;;;;;2.95;2.13;;;13.90;83.60;;;;;;5046484;28;20025;-76
2021/05/30 01:25:58;;;;;;;6.20;2.60;;;;;;;;;;5057581;28;20403;-78
2021/05/30 01:28:24;;;;;;;4.05;2.05;;;13.90;83.20;;;;;;5042203;28;20032;-77
2021/05/30 01:30:49;;;;;;;2.88;2.10;;;13.90;81.80;;;;;;5046633;28;20040;-77
2021/05/30 01:33:16;;;;;;;2.75;1.90;;;;;;;;;;5044115;28;20027;-77
2021/05/30 01:35:42;;;;;;;3.25;1.88;;;13.80;82.60;;;;;;5064667;28;20032;-77
2021/05/30 01:38:07;;;;;;;2.55;1.70;;;13.70;82.50;;;;;;5045180;28;20557;-77
2021/05/30 01:40:33;;;;;;;4.60;2.00;;;13.70;82.40;;;;;;5054296;28;20036;-76
2021/05/30 01:43:02;;;;;;;3.13;1.90;;;;;;;;;;5061936;28;20036;-76
2021/05/30 01:45:30;;;;;;;3.60;1.90;;;13.80;82.10;;;;;;5057172;28;20079;-76
2021/05/30 01:47:56;;;;;;;3.92;2.05;;;13.60;82.50;;;;;;5052916;28;20028;-75
2021/05/30 01:50:23;;;;;;;3.30;2.00;;;13.60;82.70;;;;;;5046834;28;20033;-76
2021/05/30 01:52:50;;;;;;;3.10;2.05;;;15.00;83.50;;;;;;5067134;28;20025;-76
2021/05/30 01:55:29;;;;;;;3.35;2.00;;;13.60;82.90;;;;;;5065832;28;20021;-79
2021/05/30 01:57:57;;;;;;;4.47;2.08;;;13.60;82.60;;;;;;5066208;28;20035;-79
2021/05/30 02:00:24;;;;;;;3.30;1.88;;;13.60;82.20;;;;;;5064302;28;20051;-78
2021/05/30 02:02:53;;;;;;;3.67;1.77;;;13.50;82.40;;;;;;5047604;28;20055;-79
2021/05/30 02:05:21;;;;;;;5.75;2.20;;;13.60;82.10;;;;;;5066097;28;20036;-77
2021/05/30 02:07:51;;;;;;;4.65;1.90;;;15.70;83.70;;;;;;5059786;28;20082;-80
2021/05/30 02:10:18;;;;;;;3.67;1.70;;;13.50;82.50;;;;;;5027417;28;20749;-78
2021/05/30 02:12:49;;;;;;;4.25;2.00;;;14.60;83.60;;;;;;5059715;28;20051;-77
2021/05/30 02:15:15;;;;;;;3.72;2.10;;;13.40;83.50;;;;;;5050037;28;20044;-78
2021/05/30 02:17:42;;;;;;;4.13;2.08;;;13.40;83.40;;;;;;5052303;28;20522;-78
2021/05/30 02:20:09;;;;;;;3.17;2.10;;;13.30;83.40;;;;;;5063406;28;20029;-77
2021/05/30 02:22:36;;;;;;;4.28;2.00;;;13.20;84.30;;;;;;5065995;28;20036;-78
2021/05/30 02:25:02;;;;;;;2.80;2.00;;;13.20;84.60;;;;;;5048291;28;20092;-78
2021/05/30 02:27:28;;;;;;;5.53;2.40;;;13.10;85.30;;;;;;5053391;28;20842;-80
2021/05/30 02:29:53;;;;;;;3.05;2.13;;;13.10;85.50;;;;;;5062635;28;20040;-78
2021/05/30 02:32:19;;;;;;;3.80;2.67;;;;;;;;;;5049259;28;20037;-78
2021/05/30 02:34:45;;;;;;;3.60;2.20;;;13.00;86.00;;;;;;5049966;28;20649;-77
2021/05/30 02:37:13;;;;;;;3.92;2.50;;;13.20;87.10;;;;;;5049490;28;20036;-78
2021/05/30 02:39:38;;;;;;;3.55;2.22;;;13.00;87.10;;;;;;5049546;28;20032;-76
2021/05/30 02:42:08;;;;;;;4.65;2.65;;;13.10;87.00;;;;;;5067930;28;20032;-78
2021/05/30 02:44:33;;;;;;;6.05;2.60;;;13.10;87.30;;;;;;5062759;28;20044;-75
2021/05/30 02:47:01;;;;;;;5.63;2.83;;;13.20;86.90;;;;;;5074225;28;20390;-77
2021/05/30 02:49:29;;;;;;;5.18;3.00;;;14.30;88.10;;;;;;5057389;28;20045;-78
2021/05/30 02:51:55;;;;;;;4.35;2.60;;;13.10;87.80;;;;;;5064167;28;20035;-77
2021/05/30 02:54:21;;;;;;;4.10;2.50;;;13.10;88.20;;;;;;5063914;28;20039;-77
2021/05/30 02:56:46;;;;;;;5.38;3.40;;;15.90;89.60;;;;;;5062680;28;20033;-78
2021/05/30 02:59:12;;;;;;;4.45;2.75;;;13.10;88.40;;;;;;5041948;28;20086;-78
2021/05/30 03:01:38;;;;;;;5.97;3.25;;;13.10;88.50;;;;;;5038705;28;20037;-77
2021/05/30 03:04:04;;;;;;;6.90;2.97;;;15.30;90.30;;;;;;5047269;28;20728;-77
2021/05/30 03:06:30;;;;;;;4.13;2.67;;;13.00;90.00;;;;;;5065692;28;20312;-78
2021/05/30 03:08:56;;;;;;;5.28;2.97;;;13.00;89.60;;;;;;5055170;28;20051;-77
2021/05/30 03:11:22;;;;;;;5.43;2.88;;;13.00;90.00;;;;;;5046704;28;20112;-77
2021/05/30 03:13:51;;;;;;;4.50;2.92;;;12.90;90.30;;;;;;5059142;28;20115;-77
2021/05/30 03:16:17;;;;;;;8.02;3.33;;;12.90;90.50;;;;;;5045592;28;20411;-78
2021/05/30 03:18:43;;;;;;;5.40;2.90;;;;;;;;;;5048330;28;20112;-76
2021/05/30 03:21:09;;;;;;;4.30;2.70;;;12.90;90.60;;;;;;5050871;28;20060;-79
2021/05/30 03:23:35;;;;;;;4.97;3.17;;;12.80;91.00;;;;;;5076006;28;20117;-78
2021/05/30 03:26:01;;;;;;;4.72;2.85;;;12.80;91.10;;;;;;5052497;28;20029;-79
2021/05/30 03:28:27;;;;;;;4.65;2.95;;;12.70;91.40;;;;;;5042621;28;20072;-78
2021/05/30 03:30:53;;;;;;;5.20;2.97;;;;;;;;;;5050279;28;20032;-78
2021/05/30 03:33:19;;;;;;;5.35;3.35;;;12.40;91.90;;;;;;5059957;28;20031;-79
2021/05/30 03:35:45;;;;;;;5.18;3.25;;;12.40;92.10;;;;;;5053833;28;20506;-77
2021/05/30 03:38:12;;;;;;;5.75;3.33;;;12.40;92.40;;;;;;5058699;28;20029;-77
2021/05/30 03:40:51;;;;;;;6.20;3.40;;;12.40;92.40;;;;;;5048767;28;20021;-76
2021/05/30 03:43:16;;;;;;;5.30;3.30;;;12.40;92.90;;;;;;5059406;28;20613;-77
2021/05/30 03:45:42;;;;;;;5.30;3.40;;;12.30;93.00;;;;;;5047384;28;20131;-77
2021/05/30 03:48:08;;;;;;;6.85;3.58;;;12.30;93.20;;;;;;5048668;28;20029;-77
2021/05/30 03:50:35;;;;;;;6.47;3.38;;;12.20;93.50;;;;;;5059157;28;20430;-78
2021/05/30 03:53:01;;;;;;;6.65;3.35;;;12.20;93.70;;;;;;5046245;28;20029;-77
2021/05/30 03:55:27;;;;;;;6.93;4.03;;;;;;;;;;5045140;28;20035;-78
2021/05/30 03:57:54;;;;;;;7.05;3.40;;;12.20;94.00;;;;;;5049395;28;20495;-77
2021/05/30 04:00:20;;;;;;;6.07;3.63;;;12.10;94.00;;;;;;5042998;28;20430;-78
2021/05/30 04:02:46;;;;;;;6.38;3.17;;;12.10;94.20;;;;;;5054345;28;20398;-77
2021/05/30 04:05:14;;;;;;;5.78;3.40;;;12.10;94.40;;;;;;5044777;28;20068;-76
2021/05/30 04:07:40;;;;;;;6.32;3.67;;;12.20;94.50;;;;;;5047134;28;20075;-75
2021/05/30 04:10:10;;;;;;;6.25;3.85;;;12.20;94.40;;;;;;5042805;28;20020;-76
2021/05/30 04:12:37;;;;;;;5.90;3.60;;;12.30;94.40;;;;;;5045401;28;20037;-78
2021/05/30 04:15:08;;;;;;;6.03;3.35;;;14.00;95.00;;;;;;5048549;28;20111;-76
2021/05/30 04:17:34;;;;;;;5.72;3.45;;;12.30;94.60;;;;;;5044272;28;20051;-76
2021/05/30 04:20:00;;;;;;;5.85;3.45;;;12.30;94.50;;;;;;5070800;28;20029;-77
2021/05/30 04:22:26;;;;;;;6.07;3.65;;;;;;;;;;5062472;28;20024;-79
2021/05/30 04:24:51;;;;;;;6.40;3.70;;;12.30;94.50;;;;;;5046451;28;20044;-77
2021/05/30 04:27:20;;;;;;;6.38;3.60;;;;;;;;;;5067805;28;20479;-76
2021/05/30 04:29:45;;;;;;;5.40;3.53;;;12.30;94.90;;;;;;5042427;28;20032;-77
2021/05/30 04:32:11;;;;;;;5.75;3.55;;;;;;;;;;5057074;28;20021;-77
2021/05/30 04:34:37;;;;;;;5.75;3.65;;;12.40;94.70;;;;;;5045842;28;20032;-78
2021/05/30 04:37:03;;;;;;;6.53;3.70;;;12.40;94.60;;;;;;5046261;28;20021;-79
2021/05/30 04:39:31;;;;;;;8.27;3.72;;;12.40;94.80;;;;;;5054240;28;20025;-79
2021/05/30 04:41:58;;;;;;;5.97;3.70;;;12.30;95.10;;;;;;5045854;28;20078;-78
2021/05/30 04:44:24;;;;;;;6.63;3.75;;;12.40;94.80;;;;;;5046765;28;20035;-78
2021/05/30 04:46:49;;;;;;;5.80;3.63;;;12.60;94.60;;;;;;5043698;28;20043;-77
2021/05/30 04:49:15;;;;;;;7.25;4.07;;;;;;;;;;5060833;28;20033;-77
2021/05/30 04:51:41;;;;;;;6.97;3.35;;;;;;;;;;5049402;28;20033;-76
2021/05/30 04:54:07;;;;;;;6.45;4.07;;;12.50;94.40;;;;;;5046075;28;20020;-80
2021/05/30 04:56:33;;;;;;;6.07;3.78;;;;;;;;;;5048492;28;20047;-76
2021/05/30 04:58:59;;;;;;;6.82;3.60;;;12.70;94.10;;;;;;5043122;28;20025;-77
2021/05/30 05:01:24;;;;;;;6.80;3.80;;;;;;;;;;5063566;28;20040;-77
2021/05/30 05:03:51;;;;;;;7.45;3.60;;;;;;;;;;5049037;28;20119;-79
2021/05/30 05:06:17;;;;;;;7.43;3.75;;;;;;;;;;5062231;28;20043;-79
2021/05/30 05:08:43;;;;;;;8.02;4.30;;;12.70;94.10;;;;;;5050028;28;20111;-78
2021/05/30 05:11:09;;;;;;;6.53;3.53;;;13.00;93.90;;;;;;5062711;28;20029;-77
2021/05/30 05:13:36;;;;;;;8.57;4.22;;;12.90;93.60;;;;;;5040465;28;20475;-77
2021/05/30 05:16:02;;;;;;;6.97;3.88;;;;;;;;;;5041811;28;20068;-79
2021/05/30 05:18:31;;;;;;;6.38;3.38;;;13.10;93.60;;;;;;5047437;28;20047;-77
2021/05/30 05:20:57;;;;;;;5.82;3.70;;;14.00;92.40;;;;;;5064063;28;20024;-77
2021/05/30 05:23:27;;;;;;;7.22;4.18;;;15.00;89.20;;;;;;5046337;28;20037;-78
2021/05/30 05:26:02;;;;;;;6.50;3.58;;;16.50;84.30;;;;;;5057748;28;20088;-77
2021/05/30 05:28:28;;;;;;;5.40;3.38;;;17.60;78.70;;;;;;5058082;28;20076;-79
2021/05/30 05:30:54;;;;;;;6.45;3.38;;;;;;;;;;5039193;28;20053;-78
2021/05/30 05:33:21;;;;;;;4.75;3.00;;;17.80;75.50;;;;;;5048014;28;20032;-77
2021/05/30 05:35:47;;;;;;;5.05;3.05;;;;;;;;;;5057761;28;20070;-78
2021/05/30 05:38:13;;;;;;;5.18;3.30;;;;;;;;;;5059529;28;20069;-77
2021/05/30 05:40:39;;;;;;;5.10;3.33;;;;;;;;;;5065862;28;20036;-77
2021/05/30 05:43:06;;;;;;;4.78;3.00;;;20.00;64.60;;;;;;5057104;28;20105;-75
2021/05/30 05:45:32;;;;;;;4.97;3.40;;;20.10;64.80;;;;;;5046946;28;20107;-77
2021/05/30 05:47:59;;;;;;;5.45;3.47;;;;;;;;;;5059279;28;20063;-76
2021/05/30 05:50:25;;;;;;;5.75;2.92;;;19.70;64.10;;;;;;5044163;28;20108;-78
2021/05/30 05:52:52;;;;;;;5.10;3.72;;;19.30;65.30;;;;;;5054827;28;20503;-77
2021/05/30 05:55:19;;;;;;;5.00;3.15;;;19.30;64.90;;;;;;5071782;28;20020;-77
2021/05/30 05:57:48;;;;;;;5.32;3.15;;;19.60;63.70;;;;;;5065306;28;20410;-78
2021/05/30 06:00:16;;;;;;;4.53;3.23;;;19.20;64.70;;;;;;5052741;28;20021;-79
2021/05/30 06:02:45;;;;;;;4.03;2.78;;;;;;;;;;5038168;28;20090;-77
2021/05/30 06:05:13;;;;;;;4.47;2.90;;;19.80;63.60;;;;;;5054752;28;20374;-77
2021/05/30 06:07:39;;;;;;;4.95;3.30;;;19.90;62.30;;;;;;5057398;28;20039;-77
2021/05/30 06:10:05;;;;;;;4.65;3.22;;;19.50;63.20;;;;;;5060463;28;20025;-77
2021/05/30 06:12:33;;;;;;;6.72;3.25;;;19.40;64.10;;;;;;5067988;28;20090;-78
2021/05/30 06:14:59;;;;;;;4.75;3.08;;;19.10;64.60;;;;;;5058222;28;20029;-79
2021/05/30 06:17:24;;;;;;;4.72;3.33;;;18.70;65.40;;;;;;5056220;28;20390;-79
2021/05/30 06:19:51;;;;;;;5.28;3.42;;;18.90;65.30;;;;;;5076257;28;20023;-77
2021/05/30 06:22:17;;;;;;;5.75;3.45;;;18.70;66.60;;;;;;5057078;28;20479;-78
2021/05/30 06:24:43;;;;;;;6.80;3.78;;;18.00;67.70;;;;;;5052132;28;20029;-77
2021/05/30 06:27:10;;;;;;;4.50;3.20;;;17.50;70.00;;;;;;5049579;28;20025;-76
2021/05/30 06:29:36;;;;;;;4.72;3.45;;;16.70;72.80;;;;;;5059666;28;20039;-76
2021/05/30 06:32:02;;;;;;;6.05;3.42;;;17.90;74.10;;;;;;5051284;28;20033;-77
2021/05/30 06:34:28;;;;;;;5.38;3.67;;;16.50;74.10;;;;;;5052419;28;20025;-77
2021/05/30 06:36:56;;;;;;;4.90;3.30;;;16.70;73.50;;;;;;5054335;28;20016;-78
2021/05/30 06:39:23;;;;;;;4.78;3.38;;;16.80;73.00;;;;;;5052993;28;20021;-77
2021/05/30 06:41:49;;;;;;;7.55;3.38;;;16.90;73.50;;;;;;5059128;28;20024;-79
2021/05/30 06:44:15;;;;;;;4.85;3.22;;;16.90;73.10;;;;;;5080327;28;20100;-75
2021/05/30 06:46:41;;;;;;;5.78;3.22;;;;;;;;;;5070497;28;20104;-77
2021/05/30 06:49:07;;;;;;;4.93;3.40;;;16.70;73.20;;;;;;5064209;28;20072;-78
2021/05/30 06:51:32;;;;;;;6.07;3.13;;;16.70;73.50;;;;;;5063862;28;20131;-76
2021/05/30 06:54:03;;;;;;;6.47;3.10;;;16.60;74.00;;;;;;5067041;28;20052;-77
2021/05/30 06:56:29;;;;;;;;;;;16.70;74.10;;;;;;5072768;28;20025;-77
2021/05/30 06:58:55;;;;;;;7.05;3.38;;;16.70;74.30;;;;;;5043750;28;19935;-78
2021/05/30 07:01:22;;;;;;;4.28;2.70;;;16.60;74.20;;;;;;5071333;28;20028;-76
2021/05/30 07:03:50;;;;;;;5.40;3.05;;;16.60;74.20;;;;;;5065402;28;20036;-78
2021/05/30 07:06:17;;;;;;;4.72;3.13;;;16.50;74.70;;;;;;5066501;28;20088;-77
2021/05/30 07:08:43;;;;;;;5.38;3.42;;;16.40;75.10;;;;;;5044603;28;20257;-76
2021/05/30 07:11:09;;;;;;;6.45;3.40;;;16.40;75.70;;;;;;5071628;28;20033;-75
2021/05/30 07:13:35;;;;;;;5.03;3.28;;;16.40;74.80;;;;;;5050890;28;20039;-77
2021/05/30 07:16:01;;;;;;;4.45;3.10;;;16.60;74.20;;;;;;5052401;28;20431;-77
2021/05/30 07:18:26;;;;;;;5.15;3.10;;;16.50;75.10;;;;;;5068084;28;20039;-78
2021/05/30 07:20:53;;;;;;;4.80;3.10;;;16.70;75.30;;;;;;5055280;28;20035;-78
2021/05/30 07:23:21;;;;;;;5.50;3.10;;;16.70;74.30;;;;;;5074189;28;20074;-76
2021/05/30 07:25:47;;;;;;;4.60;2.90;;;16.60;74.30;;;;;;5074644;28;20024;-78
2021/05/30 07:28:13;;;;;;;4.10;3.20;;;16.50;74.30;;;;;;5067754;28;20505;-78
2021/05/30 07:30:39;;;;;;;4.07;2.75;;;16.60;74.10;;;;;;5064755;28;20033;-76
2021/05/30 07:33:06;;;;;;;4.88;3.22;;;16.70;73.70;;;;;;5050554;28;20020;-78
2021/05/30 07:35:35;;;;;;;4.35;2.90;;;16.70;73.20;;;;;;5053941;28;20384;-77
2021/05/30 07:38:02;;;;;;;4.70;3.00;;;16.80;73.80;;;;;;5046908;28;20024;-78
2021/05/30 07:40:28;;;;;;;6.40;3.75;;;17.00;72.60;;;;;;5052111;28;20025;-77
2021/05/30 07:42:54;;;;;;;4.50;2.85;;;17.00;73.10;;;;;;5050558;28;20025;-78
2021/05/30 07:45:21;;;;;;;5.68;2.80;;;17.00;73.40;;;;;;5061914;28;20036;-78
2021/05/30 07:47:47;;;;;;;4.65;3.40;;;17.10;72.80;;;;;;5067542;28;20483;-76
2021/05/30 07:50:14;;;;;;;5.60;3.10;;;17.00;73.30;;;;;;5058679;28;20020;-78
2021/05/30 07:52:41;;;;;;;4.10;2.75;;;17.00;73.00;;;;;;5050205;28;20043;-78
2021/05/30 07:55:08;;;;;;;5.07;2.80;;;17.20;73.30;;;;;;5058833;28;20359;-77
2021/05/30 07:57:33;;;;;;;4.88;3.40;;;17.20;73.80;;;;;;5045144;28;20028;-78
2021/05/30 08:00:00;;;;;;;4.65;3.10;;;;;;;;;;5045667;28;20029;-80
2021/05/30 08:02:25;;;;;;;4.57;2.88;;;17.40;72.00;;;;;;5041939;28;20036;-78
2021/05/30 08:04:53;;;;;;;5.88;2.88;;;17.50;72.70;;;;;;5039942;28;20025;-79
2021/05/30 08:07:21;;;;;;;5.53;3.20;;;17.60;72.20;;;;;;5041695;28;20050;-78
2021/05/30 08:09:47;;;;;;;3.97;2.80;;;17.80;71.40;;;;;;5062441;28;20024;-78
2021/05/30 08:12:13;;;;;;;4.53;2.45;;;17.80;72.00;;;;;;5056921;28;20028;-78
2021/05/30 08:14:39;;;;;;;6.00;3.00;;;17.90;70.90;;;;;;5062726;28;20032;-77
2021/05/30 08:17:08;;;;;;;4.35;2.90;;;18.20;69.80;;;;;;5065311;28;20017;-76
2021/05/30 08:19:34;;;;;;;7.85;2.83;;;18.30;67.60;;;;;;5049626;28;20048;-77
2021/05/30 08:22:00;;;;;;;5.00;2.88;;;18.30;67.60;;;;;;5042878;28;20550;-77
2021/05/30 08:24:28;;;;;;;4.65;2.90;;;18.30;67.70;;;;;;5063954;28;20028;-77
2021/05/30 08:26:55;;;;;;;4.57;2.92;;;18.20;67.70;;;;;;5068850;28;20060;-77
2021/05/30 08:29:23;;;;;;;4.43;2.83;;;18.20;69.20;;;;;;5070039;28;20025;-77
2021/05/30 08:31:49;;;;;;;4.43;3.00;;;;;;;;;;5050586;28;20033;-75
2021/05/30 08:34:15;;;;;;;4.00;2.67;;;;;;;;;;5052836;28;20097;-76
2021/05/30 08:36:42;;;;;;;4.22;2.65;;;18.80;67.80;;;;;;5056014;28;20511;-77
2021/05/30 08:39:08;;;;;;;4.00;2.58;;;;;;;;;;5049192;28;20031;-76
2021/05/30 08:41:34;;;;;;;4.20;2.50;;;18.80;66.50;;;;;;5050812;28;20128;-76
2021/05/30 08:44:00;;;;;;;3.67;2.70;;;;;;;;;;5047586;28;20170;-76
2021/05/30 08:46:29;;;;;;;4.07;2.40;;;18.80;65.40;;;;;;5069028;28;20032;-76
2021/05/30 08:48:58;;;;;;;4.00;2.50;;;18.70;66.00;;;;;;5051218;28;20380;-76
2021/05/30 08:51:26;;;;;;;4.30;2.10;;;19.70;66.80;;;;;;5063862;28;20028;-77
2021/05/30 08:53:52;;;;;;;3.85;2.10;;;;;;;;;;5055100;28;20020;-76
2021/05/30 08:56:18;;;;;;;3.13;2.10;;;18.60;63.30;;;;;;5046521;28;20382;-77
2021/05/30 08:58:49;;;;;;;3.35;2.28;;;19.00;62.60;;;;;;5047259;28;20509;-76
2021/05/30 09:01:21;;;;;;;3.30;2.13;;;19.00;62.60;;;;;;5064371;28;20506;-76
2021/05/30 09:04:03;;;;;;;3.47;2.17;;;19.60;62.50;;;;;;5061599;28;20032;-76
2021/05/30 09:06:36;;;;;;;3.05;2.05;;;19.60;60.90;;;;;;5042162;28;20028;-77
2021/05/30 09:09:05;;;;;;;4.25;2.08;;;19.50;60.90;;;;;;5039731;28;20035;-77
2021/05/30 09:11:51;;;;;;;4.65;2.15;;;19.20;58.90;;;;;;5059675;28;20028;-76
2021/05/30 09:14:21;;;;;;;2.97;1.88;;;19.10;60.00;;;;;;5049581;28;20070;-75
2021/05/30 09:17:06;;;;;;;2.80;1.85;;;19.20;60.20;;;;;;5065363;28;20043;-79
2021/05/30 09:19:46;;;;;;;3.85;2.17;;;19.50;59.20;;;;;;5048695;28;20530;-76
2021/05/30 09:22:36;;;;;;;2.95;1.77;;;19.40;59.40;;;;;;5061323;28;20031;-76
2021/05/30 09:25:17;;;;;;;2.75;1.30;;;19.60;56.10;;;;;;5067569;28;20032;-78
2021/05/30 09:27:51;;;;;;;2.95;1.20;;;19.80;54.00;;;;;;5059162;28;20129;-76
2021/05/30 09:30:26;;;;;;;2.53;1.30;;;20.00;52.60;;;;;;5043476;28;20041;-76
2021/05/30 09:33:06;;;;;;;2.65;1.50;;;20.40;51.10;;;;;;5064656;28;20381;-76
2021/05/30 09:35:42;;;;;;;6.03;1.95;;;20.50;49.90;;;;;;5063229;28;20024;-77
2021/05/30 09:38:14;;;;;;;4.05;2.50;;;20.40;53.30;;;;;;5052069;28;20032;-75
2021/05/30 09:40:40;;;;;;;3.30;1.80;;;;;;;;;;5052097;28;20039;-77
2021/05/30 09:43:27;;;;;;;3.50;2.30;;;20.40;52.40;;;;;;5057167;28;20020;-78
2021/05/30 09:46:06;;;;;;;2.42;1.52;;;20.40;52.40;;;;;;5053738;28;20037;-75
2021/05/30 09:48:32;;;;;;;2.40;1.33;;;20.50;48.50;;;;;;5058468;28;21061;-77
2021/05/30 09:51:03;;;;;;;2.88;1.23;;;20.80;45.10;;;;;;5043677;28;20035;-75
2021/05/30 09:53:31;;;;;;;2.83;1.77;;;20.70;45.40;;;;;;5056261;28;20086;-78
2021/05/30 09:55:57;;;;;;;1.77;1.20;;;20.80;45.70;;;;;;5063539;28;20024;-76
2021/05/30 09:58:24;;;;;;;4.63;1.40;;;20.80;45.20;;;;;;5068168;28;20025;-78
2021/05/30 10:00:55;;;;;;;2.97;1.30;;;20.60;45.30;;;;;;5059618;28;20036;-76
2021/05/30 10:03:21;;;;;;;2.70;1.60;;;20.70;44.90;;;;;;5048447;28;20375;-77
2021/05/30 10:05:48;;;;;;;1.83;1.30;;;21.40;46.30;;;;;;5040706;28;20181;-78
2021/05/30 10:08:17;;;;;;;4.97;1.73;;;20.50;45.30;;;;;;5059665;28;20028;-78
2021/05/30 10:10:43;;;;;;;2.25;1.20;;;20.70;44.90;;;;;;5039206;28;20021;-79
2021/05/30 10:13:10;;;;;;;2.53;1.40;;;20.80;44.60;;;;;;5052418;28;20029;-80
2021/05/30 10:15:36;;;;;;;3.25;1.60;;;20.80;43.50;;;;;;5057341;28;20792;-78
2021/05/30 10:18:13;;;;;;;4.68;1.48;;;20.90;43.40;;;;;;5058201;28;20495;-79
2021/05/30 10:20:39;;;;;;;2.30;1.55;;;20.80;43.10;;;;;;5039005;28;20021;-76
2021/05/30 10:23:07;;;;;;;2.58;1.40;;;20.70;43.50;;;;;;5043013;28;20137;-77
2021/05/30 10:25:36;;;;;;;3.40;1.40;;;20.60;43.00;;;;;;5038236;28;20048;-77
2021/05/30 10:28:21;;;;;;;2.78;1.30;;;20.60;43.20;;;;;;5040875;28;20052;-75
2021/05/30 10:30:49;;;;;;;2.67;1.33;;;20.90;42.70;;;;;;5042790;28;20039;-77
2021/05/30 10:33:21;;;;;;;2.92;1.50;;;20.90;42.90;;;;;;5046282;28;20024;-78
2021/05/30 10:35:49;;;;;;;2.22;1.30;;;20.90;41.80;;;;;;5062478;28;20123;-78
2021/05/30 10:38:39;;;;;;;2.17;1.40;;;20.80;42.00;;;;;;5043365;28;20025;-75
2021/05/30 10:41:31;;;;;;;4.22;1.50;;;20.80;42.40;;;;;;5042059;28;20029;-78
2021/05/30 10:43:56;;;;;;;2.13;1.40;;;21.00;42.30;;;;;;5035612;28;20052;-77
2021/05/30 10:46:23;;;;;;;2.72;1.50;;;21.10;42.40;;;;;;5055206;28;20037;-78
2021/05/30 10:49:08;;;;;;;2.08;1.20;;;21.20;42.50;;;;;;5044900;28;20040;-78
2021/05/30 10:51:43;;;;;;;2.17;1.33;;;21.40;41.70;;;;;;5044045;28;20577;-76
2021/05/30 10:54:11;;;;;;;2.90;1.25;;;21.50;41.50;;;;;;5056861;28;20116;-79
2021/05/30 10:56:55;;;;;;;6.32;1.70;;;21.50;42.30;;;;;;5044329;28;20064;-76
2021/05/30 10:59:23;;;;;;;2.10;1.40;;;;;;;;;;5037394;28;20023;-76
2021/05/30 11:01:50;;;;;;;2.42;1.30;;;21.50;42.00;;;;;;5065915;28;20119;-78
2021/05/30 11:06:53;;;;;;;3.03;1.40;;;;;;;;;;5059117;28;20060;-77
2021/05/30 11:09:20;;;;;;;1.73;1.40;;;21.90;40.80;;;;;;5040725;28;20060;-77
2021/05/30 11:11:46;;;;;;;1.40;1.10;;;21.90;40.50;;;;;;5040518;28;20111;-77
2021/05/30 11:14:15;;;;;;;7.72;1.52;;;22.10;40.90;;;;;;5037715;28;20111;-78
2021/05/30 11:16:46;;;;;;;2.45;1.55;;;22.10;41.50;;;;;;5050115;28;20029;-79
2021/05/30 11:19:16;;;;;;;1.80;1.40;;;22.10;41.40;;;;;;5042855;28;20029;-80
2021/05/30 11:21:47;;;;;;;1.80;1.25;;;22.10;41.90;;;;;;5042100;28;20032;-78
2021/05/30 11:24:24;;;;;;;2.53;1.58;;;22.20;41.20;;;;;;5059885;28;20085;-78
2021/05/30 11:27:01;;;;;;;1.75;1.30;;;22.20;41.20;;;;;;5046689;28;20502;-78
2021/05/30 11:29:29;;;;;;;1.92;1.20;;;22.50;40.00;;;;;;5050557;28;20052;-76
2021/05/30 11:31:55;;;;;;;1.83;1.25;;;23.60;41.10;;;;;;5037509;28;20449;-77
2021/05/30 11:34:27;;;;;;;2.28;1.42;;;22.60;40.50;;;;;;5040476;28;20052;-76
2021/05/30 11:37:12;;;;;;;2.28;1.50;;;22.70;40.50;;;;;;5054821;28;20024;-77
2021/05/30 11:39:43;;;;;;;2.72;1.48;;;22.50;40.80;;;;;;5040134;28;20032;-79
2021/05/30 11:42:10;;;;;;;2.35;1.42;;;22.50;41.10;;;;;;5040462;28;20020;-79
2021/05/30 11:44:36;;;;;;;3.35;1.40;;;22.60;40.20;;;;;;5043140;28;20044;-77
2021/05/30 11:47:04;;;;;;;2.78;1.40;;;23.00;39.20;;;;;;5055061;28;20033;-78
2021/05/30 11:49:30;;;;;;;2.50;1.30;;;22.90;39.90;;;;;;5041853;28;20036;-77
2021/05/30 11:52:16;;;;;;;5.20;2.42;;;22.90;40.30;;;;;;5037836;28;20048;-78
2021/05/30 11:54:42;;;;;;;4.18;2.17;;;22.80;38.50;;;;;;5051654;28;20031;-77
2021/05/30 11:57:12;;;;;;;3.65;1.80;;;22.60;38.20;;;;;;5057460;28;20028;-77
2021/05/30 11:59:45;;;;;;;;;;;22.90;37.30;;;;;;5039461;28;20027;-78
2021/05/30 12:02:29;;;;;;;2.30;1.50;;;23.70;38.90;;;;;;5037376;28;19919;-78
2021/05/30 12:05:02;;;;;;;2.60;1.65;;;22.60;38.20;;;;;;5062577;28;20494;-77
2021/05/30 12:07:30;;;;;;;3.58;1.73;;;22.50;39.50;;;;;;5035922;28;20089;-78
2021/05/30 12:10:00;;;;;;;2.65;1.75;;;22.60;39.60;;;;;;5041236;28;20453;-78
2021/05/30 12:12:33;;;;;;;5.40;2.47;;;22.90;41.30;;;;;;5039774;28;20041;-77
2021/05/30 12:15:07;;;;;;;2.30;1.70;;;23.00;41.60;;;;;;5052582;28;20032;-76
2021/05/30 12:17:35;;;;;;;3.60;1.42;;;23.10;39.10;;;;;;5037995;28;20024;-77
2021/05/30 12:20:00;;;;;;;2.67;1.50;;;23.10;39.50;;;;;;5038114;28;20037;-77
2021/05/30 12:22:30;;;;;;;2.67;1.50;;;23.10;39.60;;;;;;5037378;28;20036;-76
2021/05/30 12:24:56;;;;;;;2.43;1.30;;;23.00;38.50;;;;;;5035311;28;20047;-77
2021/05/30 12:27:23;;;;;;;3.67;1.70;;;22.90;38.90;;;;;;5036027;28;20028;-76
2021/05/30 12:29:51;;;;;;;2.65;1.50;;;23.00;40.00;;;;;;5039289;28;20387;-77
2021/05/30 12:32:18;;;;;;;3.25;2.05;;;23.20;40.30;;;;;;5034862;28;20039;-78
2021/05/30 12:34:44;;;;;;;2.70;1.60;;;;;;;;;;5052691;28;20064;-78
2021/05/30 12:37:10;;;;;;;4.50;1.50;;;23.20;39.60;;;;;;5034613;28;20486;-77
2021/05/30 12:39:36;;;;;;;3.17;1.60;;;23.20;40.00;;;;;;5049431;28;20478;-75
2021/05/30 12:42:23;;;;;;;3.47;1.75;;;23.40;40.50;;;;;;5051567;28;20025;-77
2021/05/30 12:44:54;;;;;;;2.53;1.52;;;22.80;40.10;;;;;;5039899;28;20363;-81
2021/05/30 12:47:26;;;;;;;2.22;1.65;;;22.80;40.60;;;;;;5052260;28;20047;-79
2021/05/30 12:50:03;;;;;;;3.33;1.80;;;22.80;40.00;;;;;;5037806;28;20101;-79
2021/05/30 12:52:49;;;;;;;4.95;2.03;;;22.80;40.50;;;;;;5035997;28;20028;-78
2021/05/30 12:55:18;;;;;;;2.72;1.60;;;22.70;40.90;;;;;;5036110;28;20175;-77
2021/05/30 12:57:54;;;;;;;2.80;1.52;;;22.60;41.20;;;;;;5051414;28;20024;-78
2021/05/30 13:00:30;;;;;;;4.45;1.90;;;22.80;41.60;;;;;;5043465;28;20040;-78
2021/05/30 13:02:59;;;;;;;2.70;1.95;;;23.10;41.20;;;;;;5036375;28;20035;-78
2021/05/30 13:05:45;;;;;;;6.75;1.80;;;23.00;41.60;;;;;;5036436;28;20402;-77
2021/05/30 13:08:27;;;;;;;2.55;1.90;;;23.10;42.00;;;;;;5031097;28;20675;-77